sensor_id;sensor_type;location;lat;lon;timestamp;pressure;altitude;pressure_sealevel;temperature;humidity
58385;BME280;44185;47.844;8.966;2024-02-16T00:02:04;62409.72;;;4.92;100.00
58385;BME280;44185;47.844;8.966;2024-02-16T00:04:29;62406.22;;;4.86;100.00
58385;BME280;44185;47.844;8.966;2024-02-16T00:06:55;62411.22;;;4.91;100.00
58385;BME280;44185;47.844;8.966;2024-02-16T00:09:20;62399.19;;;4.82;100.00
58385;BME280;44185;47.844;8.966;2024-02-16T00:11:46;62401.25;;;4.82;100.00
58385;BME280;44185;47.844;8.966;2024-02-16T00:14:11;62398.47;;;4.79;100.00
58385;BME280;44185;47.844;8.966;2024-02-16T00:16:38;62408.44;;;4.88;100.00
58385;BME280;44185;47.844;8.966;2024-02-16T00:19:03;62401.97;;;4.85;100.00
58385;BME280;44185;47.844;8.966;2024-02-16T00:21:29;62401.81;;;4.82;100.00
58385;BME280;44185;47.844;8.966;2024-02-16T00:23:54;62398.47;;;4.79;100.00
58385;BME280;44185;47.844;8.966;2024-02-16T00:26:20;62390.72;;;4.72;100.00
58385;BME280;44185;47.844;8.966;2024-02-16T00:28:46;62395.16;;;4.76;100.00
58385;BME280;44185;47.844;8.966;2024-02-16T00:31:11;62407.34;;;4.87;100.00
58385;BME280;44185;47.844;8.966;2024-02-16T00:33:38;62404.19;;;4.87;100.00
58385;BME280;44185;47.844;8.966;2024-02-16T00:36:04;62408.44;;;4.88;100.00
58385;BME280;44185;47.844;8.966;2024-02-16T00:38:29;62404.00;;;4.84;100.00
58385;BME280;44185;47.844;8.966;2024-02-16T00:40:55;62409.56;;;4.89;100.00
58385;BME280;44185;47.844;8.966;2024-02-16T00:43:20;62416.75;;;4.96;100.00
58385;BME280;44185;47.844;8.966;2024-02-16T00:45:46;62415.09;;;4.95;100.00
58385;BME280;44185;47.844;8.966;2024-02-16T00:48:11;62409.00;;;4.89;100.00
58385;BME280;44185;47.844;8.966;2024-02-16T00:50:38;62407.34;;;4.87;100.00
58385;BME280;44185;47.844;8.966;2024-02-16T00:53:03;62405.13;;;4.85;100.00
58385;BME280;44185;47.844;8.966;2024-02-16T00:55:29;62404.00;;;4.84;100.00
58385;BME280;44185;47.844;8.966;2024-02-16T00:57:54;62399.59;;;4.80;100.00
58385;BME280;44185;47.844;8.966;2024-02-16T01:00:20;62396.25;;;4.77;100.00
58385;BME280;44185;47.844;8.966;2024-02-16T01:02:45;62397.53;;;4.81;100.00
58385;BME280;44185;47.844;8.966;2024-02-16T01:05:11;62400.13;;;4.81;100.00
58385;BME280;44185;47.844;8.966;2024-02-16T01:07:38;62406.22;;;4.86;100.00
58385;BME280;44185;47.844;8.966;2024-02-16T01:10:04;62411.22;;;4.91;100.00
58385;BME280;44185;47.844;8.966;2024-02-16T01:12:29;62410.66;;;4.91;100.00
58385;BME280;44185;47.844;8.966;2024-02-16T01:14:55;62411.22;;;4.91;100.00
58385;BME280;44185;47.844;8.966;2024-02-16T01:17:20;62408.59;;;4.91;100.00
58385;BME280;44185;47.844;8.966;2024-02-16T01:19:46;62411.38;;;4.94;100.00
58385;BME280;44185;47.844;8.966;2024-02-16T01:22:11;62407.50;;;4.90;100.00
58385;BME280;44185;47.844;8.966;2024-02-16T01:24:38;62407.34;;;4.87;100.00
58385;BME280;44185;47.844;8.966;2024-02-16T01:27:03;62412.31;;;4.92;100.00
58385;BME280;44185;47.844;8.966;2024-02-16T01:29:29;62417.31;;;4.97;100.00
58385;BME280;44185;47.844;8.966;2024-02-16T01:31:54;62406.22;;;4.86;100.00
58385;BME280;44185;47.844;8.966;2024-02-16T01:34:20;62412.88;;;4.93;100.00
58385;BME280;44185;47.844;8.966;2024-02-16T01:36:45;62398.47;;;4.79;100.00
58385;BME280;44185;47.844;8.966;2024-02-16T01:39:11;62401.81;;;4.82;100.00
58385;BME280;44185;47.844;8.966;2024-02-16T01:41:39;62399.59;;;4.80;100.00
58385;BME280;44185;47.844;8.966;2024-02-16T01:44:05;62401.81;;;4.82;100.00
58385;BME280;44185;47.844;8.966;2024-02-16T01:46:31;62391.81;;;4.73;100.00
58385;BME280;44185;47.844;8.966;2024-02-16T01:48:56;62392.53;;;4.76;100.00
58385;BME280;44185;47.844;8.966;2024-02-16T01:51:23;62393.09;;;4.76;100.00
58385;BME280;44185;47.844;8.966;2024-02-16T01:53:50;62398.47;;;4.79;100.00
58385;BME280;44185;47.844;8.966;2024-02-16T01:56:16;62386.84;;;4.68;100.00
58385;BME280;44185;47.844;8.966;2024-02-16T01:58:43;62380.75;;;4.62;100.00
58385;BME280;44185;47.844;8.966;2024-02-16T02:01:08;62374.81;;;4.59;100.00
58385;BME280;44185;47.844;8.966;2024-02-16T02:03:34;62377.97;;;4.60;100.00
58385;BME280;44185;47.844;8.966;2024-02-16T02:05:59;62375.94;;;4.60;100.00
58385;BME280;44185;47.844;8.966;2024-02-16T02:08:25;62380.75;;;4.62;100.00
58385;BME280;44185;47.844;8.966;2024-02-16T02:10:51;62385.75;;;4.67;100.00
58385;BME280;44185;47.844;8.966;2024-02-16T02:13:16;62388.50;;;4.70;100.00
58385;BME280;44185;47.844;8.966;2024-02-16T02:15:43;62390.16;;;4.71;100.00
58385;BME280;44185;47.844;8.966;2024-02-16T02:18:08;62388.13;;;4.72;100.00
58385;BME280;44185;47.844;8.966;2024-02-16T02:20:34;62388.50;;;4.70;100.00
58385;BME280;44185;47.844;8.966;2024-02-16T02:23:00;62388.13;;;4.72;100.00
58385;BME280;44185;47.844;8.966;2024-02-16T02:25:26;62395.69;;;4.76;100.00
58385;BME280;44185;47.844;8.966;2024-02-16T02:27:51;62398.47;;;4.79;100.00
58385;BME280;44185;47.844;8.966;2024-02-16T02:30:17;62395.69;;;4.76;100.00
58385;BME280;44185;47.844;8.966;2024-02-16T02:32:42;62396.25;;;4.77;100.00
58385;BME280;44185;47.844;8.966;2024-02-16T02:35:08;62406.78;;;4.87;100.00
58385;BME280;44185;47.844;8.966;2024-02-16T02:37:34;62409.00;;;4.89;100.00
58385;BME280;44185;47.844;8.966;2024-02-16T02:40:01;62400.69;;;4.81;100.00
58385;BME280;44185;47.844;8.966;2024-02-16T02:42:26;62401.25;;;4.82;100.00
58385;BME280;44185;47.844;8.966;2024-02-16T02:44:51;62403.47;;;4.84;100.00
58385;BME280;44185;47.844;8.966;2024-02-16T02:47:17;62398.66;;;4.82;100.00
58385;BME280;44185;47.844;8.966;2024-02-16T02:49:42;62407.34;;;4.87;100.00
58385;BME280;44185;47.844;8.966;2024-02-16T02:52:08;62405.66;;;4.86;100.00
58385;BME280;44185;47.844;8.966;2024-02-16T02:54:33;62395.16;;;4.76;100.00
58385;BME280;44185;47.844;8.966;2024-02-16T02:57:01;62389.78;;;4.73;100.00
58385;BME280;44185;47.844;8.966;2024-02-16T02:59:26;62390.72;;;4.72;100.00
58385;BME280;44185;47.844;8.966;2024-02-16T03:01:52;62386.28;;;4.67;100.00
58385;BME280;44185;47.844;8.966;2024-02-16T03:04:17;62378.53;;;4.60;100.00
58385;BME280;44185;47.844;8.966;2024-02-16T03:06:43;62369.13;;;4.51;100.00
58385;BME280;44185;47.844;8.966;2024-02-16T03:09:08;62365.25;;;4.48;100.00
58385;BME280;44185;47.844;8.966;2024-02-16T03:11:34;62375.75;;;4.58;100.00
58385;BME280;44185;47.844;8.966;2024-02-16T03:14:00;62363.03;;;4.45;100.00
58385;BME280;44185;47.844;8.966;2024-02-16T03:16:26;62351.97;;;4.35;100.00
58385;BME280;44185;47.844;8.966;2024-02-16T03:18:53;62353.63;;;4.37;100.00
58385;BME280;44185;47.844;8.966;2024-02-16T03:21:18;62354.72;;;4.38;100.00
58385;BME280;44185;47.844;8.966;2024-02-16T03:23:44;62350.84;;;4.34;100.00
58385;BME280;44185;47.844;8.966;2024-02-16T03:26:14;62349.72;;;4.33;100.00
58385;BME280;44185;47.844;8.966;2024-02-16T03:28:39;62341.59;;;4.28;100.00
58385;BME280;44185;47.844;8.966;2024-02-16T03:31:06;62340.88;;;4.25;100.00
58385;BME280;44185;47.844;8.966;2024-02-16T03:33:32;62335.91;;;4.20;100.00
58385;BME280;44185;47.844;8.966;2024-02-16T03:35:57;62332.03;;;4.16;100.00
58385;BME280;44185;47.844;8.966;2024-02-16T03:38:23;62336.44;;;4.20;100.00
58385;BME280;44185;47.844;8.966;2024-02-16T03:40:48;62329.25;;;4.14;100.00
58385;BME280;44185;47.844;8.966;2024-02-16T03:43:13;62328.31;;;4.15;100.00
58385;BME280;44185;47.844;8.966;2024-02-16T03:45:39;62323.16;;;4.08;100.00
58385;BME280;44185;47.844;8.966;2024-02-16T03:48:06;62315.97;;;4.01;100.00
58385;BME280;44185;47.844;8.966;2024-02-16T03:50:32;62319.84;;;4.05;100.00
58385;BME280;44185;47.844;8.966;2024-02-16T03:52:57;62327.59;;;4.12;100.00
58385;BME280;44185;47.844;8.966;2024-02-16T03:55:23;62321.50;;;4.06;100.00
58385;BME280;44185;47.844;8.966;2024-02-16T03:57:48;62311.16;;;3.99;100.00
58385;BME280;44185;47.844;8.966;2024-02-16T04:00:14;62305.44;;;3.91;100.00
58385;BME280;44185;47.844;8.966;2024-02-16T04:02:40;62305.63;;;3.94;100.00
58385;BME280;44185;47.844;8.966;2024-02-16T04:05:07;62312.84;;;4.00;100.00
58385;BME280;44185;47.844;8.966;2024-02-16T04:07:33;62315.97;;;4.01;100.00
58385;BME280;44185;47.844;8.966;2024-02-16T04:09:58;62314.88;;;4.00;100.00
58385;BME280;44185;47.844;8.966;2024-02-16T04:12:23;62300.66;;;3.89;100.00
58385;BME280;44185;47.844;8.966;2024-02-16T04:14:49;62313.75;;;3.99;100.00
58385;BME280;44185;47.844;8.966;2024-02-16T04:17:14;62316.53;;;4.02;100.00
58385;BME280;44185;47.844;8.966;2024-02-16T04:19:40;62315.97;;;4.01;100.00
58385;BME280;44185;47.844;8.966;2024-02-16T04:22:07;62324.25;;;4.09;100.00
58385;BME280;44185;47.844;8.966;2024-02-16T04:24:32;62300.47;;;3.86;100.00
58385;BME280;44185;47.844;8.966;2024-02-16T04:26:57;62303.25;;;3.89;100.00
58385;BME280;44185;47.844;8.966;2024-02-16T04:29:23;62297.16;;;3.83;100.00
58385;BME280;44185;47.844;8.966;2024-02-16T04:31:48;62302.84;;;3.91;100.00
58385;BME280;44185;47.844;8.966;2024-02-16T04:34:14;62295.50;;;3.82;100.00
58385;BME280;44185;47.844;8.966;2024-02-16T04:36:41;62300.47;;;3.86;100.00
58385;BME280;44185;47.844;8.966;2024-02-16T04:39:07;62297.16;;;3.83;100.00
58385;BME280;44185;47.844;8.966;2024-02-16T04:41:33;62299.91;;;3.86;100.00
58385;BME280;44185;47.844;8.966;2024-02-16T04:43:58;62292.19;;;3.78;100.00
58385;BME280;44185;47.844;8.966;2024-02-16T04:46:24;62288.84;;;3.75;100.00
58385;BME280;44185;47.844;8.966;2024-02-16T04:48:49;62288.84;;;3.75;100.00
58385;BME280;44185;47.844;8.966;2024-02-16T04:51:15;62290.50;;;3.77;100.00
58385;BME280;44185;47.844;8.966;2024-02-16T04:53:40;62288.84;;;3.75;100.00
58385;BME280;44185;47.844;8.966;2024-02-16T04:56:07;62289.97;;;3.76;100.00
58385;BME280;44185;47.844;8.966;2024-02-16T04:58:32;62286.66;;;3.73;100.00
58385;BME280;44185;47.844;8.966;2024-02-16T05:00:58;62286.66;;;3.73;100.00
58385;BME280;44185;47.844;8.966;2024-02-16T05:03:23;62282.75;;;3.70;100.00
58385;BME280;44185;47.844;8.966;2024-02-16T05:05:49;62288.28;;;3.75;100.00
58385;BME280;44185;47.844;8.966;2024-02-16T05:08:14;62281.66;;;3.69;100.00
58385;BME280;44185;47.844;8.966;2024-02-16T05:10:40;62280.56;;;3.67;100.00
58385;BME280;44185;47.844;8.966;2024-02-16T05:13:07;62291.06;;;3.77;100.00
58385;BME280;44185;47.844;8.966;2024-02-16T05:15:32;62296.03;;;3.82;100.00
58385;BME280;44185;47.844;8.966;2024-02-16T05:17:58;62290.50;;;3.77;100.00
58385;BME280;44185;47.844;8.966;2024-02-16T05:20:23;62275.75;;;3.65;100.00
58385;BME280;44185;47.844;8.966;2024-02-16T05:22:49;62275.56;;;3.63;100.00
58385;BME280;44185;47.844;8.966;2024-02-16T05:25:16;62278.34;;;3.65;100.00
58385;BME280;44185;47.844;8.966;2024-02-16T05:27:41;62269.66;;;3.60;100.00
58385;BME280;44185;47.844;8.966;2024-02-16T05:30:10;62278.91;;;3.66;100.00
58385;BME280;44185;47.844;8.966;2024-02-16T05:32:36;62278.34;;;3.65;100.00
58385;BME280;44185;47.844;8.966;2024-02-16T05:35:02;62276.66;;;3.64;100.00
58385;BME280;44185;47.844;8.966;2024-02-16T05:37:28;62257.88;;;3.46;100.00
58385;BME280;44185;47.844;8.966;2024-02-16T05:39:53;62257.31;;;3.45;100.00
58385;BME280;44185;47.844;8.966;2024-02-16T05:42:19;62253.44;;;3.42;100.00
58385;BME280;44185;47.844;8.966;2024-02-16T05:44:45;62239.06;;;3.28;100.00
58385;BME280;44185;47.844;8.966;2024-02-16T05:47:12;62246.81;;;3.36;100.00
58385;BME280;44185;47.844;8.966;2024-02-16T05:49:37;62231.31;;;3.21;100.00
58385;BME280;44185;47.844;8.966;2024-02-16T05:52:03;62231.88;;;3.21;100.00
58385;BME280;44185;47.844;8.966;2024-02-16T05:54:30;62243.47;;;3.32;100.00
58385;BME280;44185;47.844;8.966;2024-02-16T05:56:55;62246.81;;;3.36;100.00
58385;BME280;44185;47.844;8.966;2024-02-16T05:59:21;62244.78;;;3.36;100.00
58385;BME280;44185;47.844;8.966;2024-02-16T06:01:46;62251.22;;;3.40;100.00
58385;BME280;44185;47.844;8.966;2024-02-16T06:04:13;62241.84;;;3.31;100.00
58385;BME280;44185;47.844;8.966;2024-02-16T06:06:38;62239.06;;;3.28;100.00
58385;BME280;44185;47.844;8.966;2024-02-16T06:09:04;62246.81;;;3.36;100.00
58385;BME280;44185;47.844;8.966;2024-02-16T06:11:29;62230.78;;;3.20;100.00
58385;BME280;44185;47.844;8.966;2024-02-16T06:13:55;62235.19;;;3.25;100.00
58385;BME280;44185;47.844;8.966;2024-02-16T06:16:20;62228.56;;;3.18;100.00
58385;BME280;44185;47.844;8.966;2024-02-16T06:18:45;62234.09;;;3.24;100.00
58385;BME280;44185;47.844;8.966;2024-02-16T06:21:12;62236.31;;;3.26;100.00
58385;BME280;44185;47.844;8.966;2024-02-16T06:23:38;62239.06;;;3.28;100.00
58385;BME280;44185;47.844;8.966;2024-02-16T06:26:06;62237.41;;;3.27;100.00
58385;BME280;44185;47.844;8.966;2024-02-16T06:28:31;62236.84;;;3.26;100.00
58385;BME280;44185;47.844;8.966;2024-02-16T06:30:57;62240.16;;;3.29;100.00
58385;BME280;44185;47.844;8.966;2024-02-16T06:33:22;62240.16;;;3.29;100.00
58385;BME280;44185;47.844;8.966;2024-02-16T06:35:48;62241.28;;;3.30;100.00
58385;BME280;44185;47.844;8.966;2024-02-16T06:38:15;62237.41;;;3.27;100.00
58385;BME280;44185;47.844;8.966;2024-02-16T06:40:40;62232.97;;;3.22;100.00
58385;BME280;44185;47.844;8.966;2024-02-16T06:43:05;62237.94;;;3.27;100.00
58385;BME280;44185;47.844;8.966;2024-02-16T06:45:31;62230.94;;;3.23;100.00
58385;BME280;44185;47.844;8.966;2024-02-16T06:47:56;62241.84;;;3.31;100.00
58385;BME280;44185;47.844;8.966;2024-02-16T06:50:22;62240.72;;;3.30;100.00
58385;BME280;44185;47.844;8.966;2024-02-16T06:52:47;62245.69;;;3.34;100.00
58385;BME280;44185;47.844;8.966;2024-02-16T06:55:14;62247.91;;;3.37;100.00
58385;BME280;44185;47.844;8.966;2024-02-16T06:57:40;62244.03;;;3.33;100.00
58385;BME280;44185;47.844;8.966;2024-02-16T07:00:07;62245.69;;;3.34;100.00
58385;BME280;44185;47.844;8.966;2024-02-16T07:02:33;62253.44;;;3.42;100.00
58385;BME280;44185;47.844;8.966;2024-02-16T07:04:58;62257.31;;;3.45;100.00
58385;BME280;44185;47.844;8.966;2024-02-16T07:07:24;62252.34;;;3.41;100.00
58385;BME280;44185;47.844;8.966;2024-02-16T07:09:49;62256.22;;;3.44;100.00
58385;BME280;44185;47.844;8.966;2024-02-16T07:12:16;62247.38;;;3.36;100.00
58385;BME280;44185;47.844;8.966;2024-02-16T07:14:41;62257.88;;;3.46;100.00
58385;BME280;44185;47.844;8.966;2024-02-16T07:17:07;62252.34;;;3.41;100.00
58385;BME280;44185;47.844;8.966;2024-02-16T07:19:32;62259.53;;;3.48;100.00
58385;BME280;44185;47.844;8.966;2024-02-16T07:21:57;62257.31;;;3.45;100.00
58385;BME280;44185;47.844;8.966;2024-02-16T07:24:23;62257.31;;;3.45;100.00
58385;BME280;44185;47.844;8.966;2024-02-16T07:26:48;62258.97;;;3.47;100.00
58385;BME280;44185;47.844;8.966;2024-02-16T07:29:15;62269.50;;;3.57;100.00
58385;BME280;44185;47.844;8.966;2024-02-16T07:31:41;62279.44;;;3.66;100.00
58385;BME280;44185;47.844;8.966;2024-02-16T07:34:06;62290.50;;;3.77;100.00
58385;BME280;44185;47.844;8.966;2024-02-16T07:36:34;62293.81;;;3.80;100.00
58385;BME280;44185;47.844;8.966;2024-02-16T07:38:59;62303.81;;;3.89;100.00
58385;BME280;44185;47.844;8.966;2024-02-16T07:41:25;62313.75;;;3.99;100.00
58385;BME280;44185;47.844;8.966;2024-02-16T07:43:50;62318.72;;;4.04;100.00
58385;BME280;44185;47.844;8.966;2024-02-16T07:46:17;62332.56;;;4.17;100.00
58385;BME280;44185;47.844;8.966;2024-02-16T07:48:42;62344.75;;;4.28;100.00
58385;BME280;44185;47.844;8.966;2024-02-16T07:51:08;62351.56;;;4.37;100.00
58385;BME280;44185;47.844;8.966;2024-02-16T07:53:33;62365.81;;;4.48;100.00
58385;BME280;44185;47.844;8.966;2024-02-16T07:55:59;62379.25;;;4.63;100.00
58385;BME280;44185;47.844;8.966;2024-02-16T07:58:24;62397.00;;;4.80;100.00
58385;BME280;44185;47.844;8.966;2024-02-16T08:00:50;62402.91;;;4.83;100.00
58385;BME280;44185;47.844;8.966;2024-02-16T08:03:17;62415.09;;;4.95;100.00
58385;BME280;44185;47.844;8.966;2024-02-16T08:05:42;62423.97;;;5.03;100.00
58385;BME280;44185;47.844;8.966;2024-02-16T08:08:08;62431.72;;;5.10;100.00
58385;BME280;44185;47.844;8.966;2024-02-16T08:10:33;62437.81;;;5.16;100.00
58385;BME280;44185;47.844;8.966;2024-02-16T08:12:59;62441.88;;;5.22;100.00
58385;BME280;44185;47.844;8.966;2024-02-16T08:15:24;62453.88;;;5.31;100.00
58385;BME280;44185;47.844;8.966;2024-02-16T08:17:50;62461.66;;;5.39;100.00
58385;BME280;44185;47.844;8.966;2024-02-16T08:20:17;62468.28;;;5.45;100.00
58385;BME280;44185;47.844;8.966;2024-02-16T08:22:43;62475.50;;;5.52;100.00
58385;BME280;44185;47.844;8.966;2024-02-16T08:25:09;62483.81;;;5.60;100.00
58385;BME280;44185;47.844;8.966;2024-02-16T08:27:34;62486.94;;;5.67;100.00
58385;BME280;44185;47.844;8.966;2024-02-16T08:30:00;62501.53;;;5.76;100.00
58385;BME280;44185;47.844;8.966;2024-02-16T08:32:25;62506.16;;;5.83;100.00
58385;BME280;44185;47.844;8.966;2024-02-16T08:34:52;62514.88;;;5.89;100.00
58385;BME280;44185;47.844;8.966;2024-02-16T08:37:18;62517.81;;;5.94;100.00
58385;BME280;44185;47.844;8.966;2024-02-16T08:39:44;62532.59;;;6.06;100.00
58385;BME280;44185;47.844;8.966;2024-02-16T08:42:09;62530.56;;;6.06;100.00
58385;BME280;44185;47.844;8.966;2024-02-16T08:44:35;62549.81;;;6.22;100.00
58385;BME280;44185;47.844;8.966;2024-02-16T08:47:01;62552.75;;;6.27;100.00
58385;BME280;44185;47.844;8.966;2024-02-16T08:49:26;62565.34;;;6.37;100.00
58385;BME280;44185;47.844;8.966;2024-02-16T08:51:51;62566.22;;;6.42;100.00
58385;BME280;44185;47.844;8.966;2024-02-16T08:54:18;62575.50;;;6.49;100.00
58385;BME280;44185;47.844;8.966;2024-02-16T08:56:44;62584.38;;;6.57;100.00
58385;BME280;44185;47.844;8.966;2024-02-16T08:59:10;62597.53;;;6.67;100.00
58385;BME280;44185;47.844;8.966;2024-02-16T09:01:36;62606.00;;;6.77;100.00
58385;BME280;44185;47.844;8.966;2024-02-16T09:04:03;62609.34;;;6.81;100.00
58385;BME280;44185;47.844;8.966;2024-02-16T09:06:28;62618.63;;;6.87;100.00
58385;BME280;44185;47.844;8.966;2024-02-16T09:08:54;62623.22;;;6.94;100.00
58385;BME280;44185;47.844;8.966;2024-02-16T09:11:22;62628.59;;;6.96;100.00
58385;BME280;44185;47.844;8.966;2024-02-16T09:13:47;62631.72;;;7.04;100.00
58385;BME280;44185;47.844;8.966;2024-02-16T09:16:13;62645.97;;;7.15;100.00
58385;BME280;44185;47.844;8.966;2024-02-16T09:18:38;62652.50;;;7.19;100.00
58385;BME280;44185;47.844;8.966;2024-02-16T09:21:04;62665.25;;;7.31;100.00
58385;BME280;44185;47.844;8.966;2024-02-16T09:23:31;62671.53;;;7.39;100.00
58385;BME280;44185;47.844;8.966;2024-02-16T09:25:56;62680.25;;;7.45;100.00
58385;BME280;44185;47.844;8.966;2024-02-16T09:28:23;62687.06;;;7.54;100.00
58385;BME280;44185;47.844;8.966;2024-02-16T09:30:48;62696.91;;;7.61;100.00
58385;BME280;44185;47.844;8.966;2024-02-16T09:33:14;62706.53;;;7.72;100.00
58385;BME280;44185;47.844;8.966;2024-02-16T09:35:39;62712.44;;;7.75;100.00
58385;BME280;44185;47.844;8.966;2024-02-16T09:38:05;62720.94;;;7.86;100.00
58385;BME280;44185;47.844;8.966;2024-02-16T09:40:31;62718.16;;;7.83;100.00
58385;BME280;44185;47.844;8.966;2024-02-16T09:42:56;62729.69;;;7.92;100.00
58385;BME280;44185;47.844;8.966;2024-02-16T09:45:23;62744.44;;;8.10;100.00
58385;BME280;44185;47.844;8.966;2024-02-16T09:47:49;62762.78;;;8.28;100.00
58385;BME280;44185;47.844;8.966;2024-02-16T09:50:15;62776.91;;;8.36;100.00
58385;BME280;44185;47.844;8.966;2024-02-16T09:52:41;62779.63;;;8.46;100.00
58385;BME280;44185;47.844;8.966;2024-02-16T09:55:12;62803.78;;;8.64;100.00
58385;BME280;44185;47.844;8.966;2024-02-16T09:57:38;62810.44;;;8.70;100.00
58385;BME280;44185;47.844;8.966;2024-02-16T10:00:04;62831.41;;;8.87;100.00
58385;BME280;44185;47.844;8.966;2024-02-16T10:02:40;62835.47;;;8.94;100.00
58385;BME280;44185;47.844;8.966;2024-02-16T10:05:11;62850.09;;;9.10;100.00
58385;BME280;44185;47.844;8.966;2024-02-16T10:07:36;62863.28;;;9.20;100.00
58385;BME280;44185;47.844;8.966;2024-02-16T10:10:02;62876.06;;;9.32;100.00
58385;BME280;44185;47.844;8.966;2024-02-16T10:12:27;62878.47;;;9.37;100.00
58385;BME280;44185;47.844;8.966;2024-02-16T10:14:56;62881.63;;;9.37;100.00
58385;BME280;44185;47.844;8.966;2024-02-16T10:17:22;62877.91;;;9.36;99.39
58385;BME280;44185;47.844;8.966;2024-02-16T10:19:56;62904.44;;;9.59;99.77
58385;BME280;44185;47.844;8.966;2024-02-16T10:22:21;62928.53;;;9.84;100.00
58385;BME280;44185;47.844;8.966;2024-02-16T10:24:47;62944.66;;;9.99;99.82
58385;BME280;44185;47.844;8.966;2024-02-16T10:27:16;62927.00;;;9.85;97.56
58385;BME280;44185;47.844;8.966;2024-02-16T10:29:43;62939.50;;;9.92;98.88
58385;BME280;44185;47.844;8.966;2024-02-16T10:32:09;62937.97;;;9.93;95.48
58385;BME280;44185;47.844;8.966;2024-02-16T10:34:36;62968.84;;;10.17;96.52
58385;BME280;44185;47.844;8.966;2024-02-16T10:37:06;62976.56;;;10.31;93.67
58385;BME280;44185;47.844;8.966;2024-02-16T10:39:32;63005.38;;;10.56;92.54
58385;BME280;44185;47.844;8.966;2024-02-16T10:41:58;63038.06;;;10.84;89.81
58385;BME280;44185;47.844;8.966;2024-02-16T10:44:27;63041.41;;;10.87;88.15
58385;BME280;44185;47.844;8.966;2024-02-16T10:46:53;63025.44;;;10.75;88.03
58385;BME280;44185;47.844;8.966;2024-02-16T10:49:19;63028.75;;;10.78;88.32
58385;BME280;44185;47.844;8.966;2024-02-16T10:51:47;63032.66;;;10.82;87.91
58385;BME280;44185;47.844;8.966;2024-02-16T10:54:18;63048.25;;;10.96;87.55
58385;BME280;44185;47.844;8.966;2024-02-16T10:56:45;63056.06;;;11.04;86.97
58385;BME280;44185;47.844;8.966;2024-02-16T10:59:10;63040.63;;;10.92;85.90
58385;BME280;44185;47.844;8.966;2024-02-16T11:01:39;63052.16;;;11.00;87.41
58385;BME280;44185;47.844;8.966;2024-02-16T11:04:06;63059.41;;;11.07;87.56
58385;BME280;44185;47.844;8.966;2024-02-16T11:06:32;63072.78;;;11.19;87.24
58385;BME280;44185;47.844;8.966;2024-02-16T11:09:01;63080.97;;;11.25;87.21
58385;BME280;44185;47.844;8.966;2024-02-16T11:11:29;63076.28;;;11.25;86.04
58385;BME280;44185;47.844;8.966;2024-02-16T11:13:54;63086.72;;;11.32;86.09
58385;BME280;44185;47.844;8.966;2024-02-16T11:16:20;63086.31;;;11.34;85.98
58385;BME280;44185;47.844;8.966;2024-02-16T11:18:46;63093.94;;;11.39;86.49
58385;BME280;44185;47.844;8.966;2024-02-16T11:21:12;63103.28;;;11.45;85.36
58385;BME280;44185;47.844;8.966;2024-02-16T11:23:39;63097.44;;;11.45;83.05
58385;BME280;44185;47.844;8.966;2024-02-16T11:26:09;63108.44;;;11.53;83.88
58385;BME280;44185;47.844;8.966;2024-02-16T11:28:37;63104.56;;;11.49;81.94
58385;BME280;44185;47.844;8.966;2024-02-16T11:31:03;63121.66;;;11.63;81.77
58385;BME280;44185;47.844;8.966;2024-02-16T11:33:29;63129.06;;;11.72;81.73
58385;BME280;44185;47.844;8.966;2024-02-16T11:35:55;63133.53;;;11.76;80.92
58385;BME280;44185;47.844;8.966;2024-02-16T11:38:21;63138.00;;;11.81;78.65
58385;BME280;44185;47.844;8.966;2024-02-16T11:40:53;63155.81;;;11.97;79.53
58385;BME280;44185;47.844;8.966;2024-02-16T11:43:20;63154.16;;;11.96;77.70
58385;BME280;44185;47.844;8.966;2024-02-16T11:45:47;63168.09;;;12.09;77.84
58385;BME280;44185;47.844;8.966;2024-02-16T11:48:12;63157.66;;;12.01;76.96
58385;BME280;44185;47.844;8.966;2024-02-16T11:50:38;63187.06;;;12.27;78.22
58385;BME280;44185;47.844;8.966;2024-02-16T11:53:03;63203.25;;;12.42;78.13
58385;BME280;44185;47.844;8.966;2024-02-16T11:55:29;63224.59;;;12.64;77.49
58385;BME280;44185;47.844;8.966;2024-02-16T11:57:54;63245.97;;;12.87;77.72
58385;BME280;44185;47.844;8.966;2024-02-16T12:00:20;63264.63;;;12.99;76.34
58385;BME280;44185;47.844;8.966;2024-02-16T12:02:47;63275.94;;;13.12;75.00
58385;BME280;44185;47.844;8.966;2024-02-16T12:05:13;63301.63;;;13.37;74.75
58385;BME280;44185;47.844;8.966;2024-02-16T12:07:39;63292.44;;;13.33;72.87
58385;BME280;44185;47.844;8.966;2024-02-16T12:10:06;63287.13;;;13.23;73.29
58385;BME280;44185;47.844;8.966;2024-02-16T12:12:35;63291.97;;;13.25;73.39
58385;BME280;44185;47.844;8.966;2024-02-16T12:15:00;63255.28;;;12.93;73.59
58385;BME280;44185;47.844;8.966;2024-02-16T12:17:26;63264.63;;;12.99;74.38
58385;BME280;44185;47.844;8.966;2024-02-16T12:19:53;63258.09;;;12.96;73.50
58385;BME280;44185;47.844;8.966;2024-02-16T12:22:20;63266.31;;;13.01;74.27
58385;BME280;44185;47.844;8.966;2024-02-16T12:24:46;63261.13;;;12.94;74.21
58385;BME280;44185;47.844;8.966;2024-02-16T12:27:11;63241.50;;;12.83;73.36
58385;BME280;44185;47.844;8.966;2024-02-16T12:29:37;63255.59;;;12.98;75.05
58385;BME280;44185;47.844;8.966;2024-02-16T12:32:03;63267.72;;;13.07;74.95
58385;BME280;44185;47.844;8.966;2024-02-16T12:34:29;63281.53;;;13.18;74.03
58385;BME280;44185;47.844;8.966;2024-02-16T12:36:56;63296.06;;;13.31;73.44
58385;BME280;44185;47.844;8.966;2024-02-16T12:39:21;63301.78;;;13.39;74.00
58385;BME280;44185;47.844;8.966;2024-02-16T12:41:47;63292.84;;;13.31;73.09
58385;BME280;44185;47.844;8.966;2024-02-16T12:44:13;63285.84;;;13.19;74.15
58385;BME280;44185;47.844;8.966;2024-02-16T12:46:38;63280.41;;;13.17;73.66
58385;BME280;44185;47.844;8.966;2024-02-16T12:49:03;63286.56;;;13.22;73.59
58385;BME280;44185;47.844;8.966;2024-02-16T12:51:29;63293.41;;;13.31;75.50
58385;BME280;44185;47.844;8.966;2024-02-16T12:53:56;63295.34;;;13.28;75.55